Time;durP1;ratioP1;P1;durP2;ratioP2;P2;SDS_P1;SDS_P2;PMS_P1;PMS_P2;Temp;Humidity;BMP_temperature;BMP_pressure;BME280_temperature;BME280_humidity;BME280_pressure;Samples;Min_cycle;Max_cycle;Signal;HPM_P1;HPM_P2
2022/08/07 00:01:07;;;;;;;17.20;10.02;;;;;;;19.01;100.00;94668.00;5018988;28;20037;-90
2022/08/07 00:03:33;;;;;;;24.58;10.07;;;;;;;18.85;100.00;94675.66;5002433;28;20026;-90
2022/08/07 00:05:58;;;;;;;21.23;11.65;;;;;;;18.77;100.00;94670.03;5002427;28;20052;-90
2022/08/07 00:08:24;;;;;;;20.92;12.70;;;;;;;18.64;100.00;94681.56;5018526;28;20030;-91
2022/08/07 00:10:50;;;;;;;21.90;13.13;;;;;;;18.60;100.00;94680.63;5002421;28;20393;-90
2022/08/07 00:13:18;;;;;;;15.05;11.02;;;;;;;18.91;100.00;94683.16;5018311;28;20072;-90
2022/08/07 00:15:44;;;;;;;28.98;9.65;;;;;;;19.17;100.00;94670.97;5018315;28;20065;-90
2022/08/07 00:18:09;;;;;;;14.63;9.07;;;;;;;18.93;100.00;94667.69;5018286;28;20061;-90
2022/08/07 00:20:36;;;;;;;13.30;8.25;;;;;;;19.18;100.00;94668.03;5018262;28;20367;-90
2022/08/07 00:23:05;;;;;;;13.77;8.48;;;;;;;19.35;100.00;94661.13;5001970;28;20390;-90
2022/08/07 00:25:30;;;;;;;17.10;8.82;;;;;;;19.18;100.00;94659.25;5002316;28;20030;-90
2022/08/07 00:27:56;;;;;;;18.33;10.82;;;;;;;18.61;100.00;94671.56;5018331;28;20325;-90
2022/08/07 00:30:22;;;;;;;19.48;10.27;;;;;;;18.50;100.00;94677.16;5018318;28;20053;-90
2022/08/07 00:32:48;;;;;;;22.60;10.90;;;;;;;18.63;100.00;94672.84;5017989;28;20080;-90
2022/08/07 00:35:15;;;;;;;17.48;11.20;;;;;;;18.73;100.00;94679.72;5001862;28;20034;-91
2022/08/07 00:37:40;;;;;;;17.67;10.93;;;;;;;18.73;100.00;94671.75;5001837;28;20441;-91
2022/08/07 00:40:06;;;;;;;14.48;9.45;;;;;;;19.10;100.00;94674.13;5001749;28;20061;-90
2022/08/07 00:42:32;;;;;;;10.13;7.88;;;;;;;19.20;100.00;94667.69;5017903;28;20030;-90
2022/08/07 00:44:58;;;;;;;15.00;8.55;;;;;;;19.34;100.00;94656.91;5001693;28;20026;-90
2022/08/07 00:47:24;;;;;;;17.30;9.98;;;;;;;19.04;100.00;94665.53;5018027;28;20033;-91
2022/08/07 00:49:49;;;;;;;17.95;10.05;;;;;;;18.70;100.00;94676.88;5018047;28;20025;-91
2022/08/07 00:52:15;;;;;;;14.38;9.27;;;;;;;18.93;100.00;94674.88;5001556;28;20393;-91
2022/08/07 00:54:40;;;;;;;12.68;8.85;;;;;;;19.12;100.00;94669.25;5020980;28;20057;-90
2022/08/07 00:57:06;;;;;;;11.95;8.15;;;;;;;19.15;100.00;94665.22;5033202;28;20351;-90
2022/08/07 00:59:33;;;;;;;11.68;7.90;;;;;;;19.36;100.00;94658.13;5017536;28;20026;-90
2022/08/07 01:02:02;;;;;;;13.63;9.02;;;;;;;19.04;100.00;94665.53;5026501;28;20033;-91
2022/08/07 01:04:29;;;;;;;16.00;10.02;;;;;;;18.88;100.00;94673.16;5004490;28;20030;-91
2022/08/07 01:06:58;;;;;;;14.70;8.38;;;;;;;18.98;100.00;94680.03;5008316;28;20788;-91
2022/08/07 01:09:24;;;;;;;15.02;7.85;;;;;;;19.36;100.00;94674.06;5003808;28;20431;-90
2022/08/07 01:11:53;;;;;;;15.13;8.18;;;;;;;19.69;100.00;94675.41;5028746;28;20339;-90
2022/08/07 01:14:22;;;;;;;11.25;7.20;;;;;;;19.98;100.00;94668.59;5012092;28;20045;-90
2022/08/07 01:16:49;;;;;;;11.95;6.35;;;;;;;20.16;100.00;94663.97;5001485;28;20029;-90
2022/08/07 01:19:18;;;;;;;13.98;7.10;;;;;;;20.25;100.00;94668.50;5017156;28;20026;-90
2022/08/07 01:22:13;;;;;;;8.30;6.50;;;;;;;20.38;100.00;94667.47;5001426;28;20041;-91
2022/08/07 01:24:39;;;;;;;9.35;5.93;;;;;;;20.53;100.00;94671.44;5018209;28;20029;-90
2022/08/07 01:27:05;;;;;;;14.95;5.75;;;;;;;20.66;100.00;94674.97;5017137;28;20034;-90
2022/08/07 01:29:30;;;;;;;9.60;6.47;;;;;;;20.18;100.00;94669.00;5001009;28;20033;-91
2022/08/07 01:32:16;;;;;;;18.05;6.90;;;;;;;19.84;100.00;94668.78;5001234;28;20036;-90
2022/08/07 01:34:44;;;;;;;11.43;6.60;;;;;;;20.10;100.00;94677.78;5000265;28;20029;-90
2022/08/07 01:37:16;;;;;;;12.05;6.75;;;;;;;20.51;100.00;94676.31;5000681;28;20030;-90
2022/08/07 01:39:44;;;;;;;12.10;6.47;;;;;;;20.06;100.00;94678.44;5016863;28;20355;-90
2022/08/07 01:42:10;;;;;;;11.23;6.25;;;;;;;20.44;100.00;94668.84;5000930;28;20034;-91
2022/08/07 01:44:39;;;;;;;10.70;6.43;;;;;;;20.51;100.00;94675.50;5016699;28;20188;-90
2022/08/07 01:47:07;;;;;;;7.35;5.45;;;;;;;20.79;100.00;94656.38;5000481;28;20091;-90
2022/08/07 01:49:32;;;;;;;8.27;5.63;;;;;;;20.89;100.00;94664.81;5017073;28;20052;-90
2022/08/07 01:52:00;;;;;;;17.48;7.70;;;;;;;20.69;100.00;94670.84;5016718;28;20116;-91
2022/08/07 01:54:30;;;;;;;11.80;6.97;;;;;;;20.72;100.00;94676.31;5000289;28;20037;-90
2022/08/07 01:57:13;;;;;;;17.13;7.00;;;;;;;20.62;100.00;94666.06;5017663;28;20435;-90
2022/08/07 01:59:49;;;;;;;9.07;6.03;;;;;;;20.84;100.00;94667.63;5000747;28;20030;-90
2022/08/07 02:02:29;;;;;;;12.20;7.10;;;;;;;21.03;100.00;94669.84;5017047;28;20033;-90
2022/08/07 02:05:07;;;;;;;8.27;6.10;;;;;;;20.99;100.00;94670.81;5000188;28;20026;-90
2022/08/07 02:07:38;;;;;;;11.75;6.90;;;;;;;20.61;100.00;94667.16;5000473;28;20033;-90
2022/08/07 02:10:05;;;;;;;17.40;7.43;;;;;;;20.82;100.00;94664.53;5016353;28;20565;-90
2022/08/07 02:12:33;;;;;;;14.32;7.07;;;;;;;20.72;100.00;94667.53;5000268;28;20336;-90
2022/08/07 02:14:59;;;;;;;10.70;6.95;;;;;;;20.90;100.00;94665.56;5016204;28;20034;-90
2022/08/07 02:17:25;;;;;;;8.95;6.45;;;;;;;20.97;100.00;94665.84;5016112;28;20034;-90
2022/08/07 02:19:52;;;;;;;18.95;7.75;;;;;;;20.10;100.00;94677.78;4999775;28;20434;-91
2022/08/07 02:22:20;;;;;;;12.00;7.75;;;;;;;19.91;100.00;94674.38;5000196;28;20034;-90
2022/08/07 02:24:58;;;;;;;23.05;8.30;;;;;;;20.41;100.00;94669.47;5017448;28;20041;-90
2022/08/07 02:27:28;;;;;;;10.57;7.05;;;;;;;20.72;100.00;94670.22;5016276;28;20493;-90
2022/08/07 02:29:58;;;;;;;17.67;6.18;;;;;;;20.96;100.00;94664.28;5016073;28;20084;-90
2022/08/07 02:32:26;;;;;;;12.15;5.95;;;;;;;21.07;100.00;94659.31;5000066;28;20388;-90
2022/08/07 02:34:55;;;;;;;12.52;6.40;;;;;;;21.14;100.00;94656.88;4999582;28;20034;-90
2022/08/07 02:37:21;;;;;;;14.00;6.53;;;;;;;21.22;100.00;94652.59;5015948;28;20034;-90
2022/08/07 02:39:48;;;;;;;10.07;6.22;;;;;;;21.17;100.00;94647.47;4999487;28;20048;-90
2022/08/07 02:42:13;;;;;;;10.43;5.82;;;;;;;21.22;100.00;94644.59;5015822;28;20029;-90
2022/08/07 02:44:40;;;;;;;16.42;7.03;;;;;;;20.90;100.00;94641.59;5015127;28;20033;-90
2022/08/07 02:47:09;;;;;;;14.45;6.70;;;;;;;20.58;100.00;94638.53;5016056;28;20383;-91
2022/08/07 02:49:34;;;;;;;14.63;6.80;;;;;;;20.36;100.00;94640.38;4999889;28;20030;-90
2022/08/07 02:52:03;;;;;;;11.88;7.25;;;;;;;20.13;100.00;94645.22;5015955;28;20104;-91
2022/08/07 02:54:29;;;;;;;14.93;7.88;;;;;;;20.36;100.00;94653.69;4999441;28;20034;-90
2022/08/07 02:56:55;;;;;;;10.15;6.85;;;;;;;20.13;100.00;94661.97;5015509;28;20037;-90
2022/08/07 02:59:23;;;;;;;8.95;6.30;;;;;;;20.24;100.00;94659.72;5016101;28;20080;-90
2022/08/07 03:01:49;;;;;;;15.60;6.85;;;;;;;20.38;100.00;94650.72;4999442;28;20091;-90
2022/08/07 03:04:16;;;;;;;14.35;7.07;;;;;;;20.22;100.00;94651.28;5001186;28;20038;-91
2022/08/07 03:06:43;;;;;;;9.95;5.80;;;;;;;20.55;100.00;94655.16;5015857;28;20030;-90
2022/08/07 03:09:08;;;;;;;8.50;5.15;;;;;;;20.58;100.00;94651.84;5015515;28;20041;-90
2022/08/07 03:11:35;;;;;;;9.75;5.35;;;;;;;20.55;100.00;94657.81;5015763;28;20034;-90
2022/08/07 03:14:04;;;;;;;14.07;5.75;;;;;;;20.76;100.00;94655.94;5015634;28;20088;-90
2022/08/07 03:16:34;;;;;;;8.27;5.68;;;;;;;20.54;100.00;94665.00;5015989;28;20034;-90
2022/08/07 03:19:00;;;;;;;8.90;4.80;;;;;;;20.81;100.00;94664.88;4999674;28;20038;-90
2022/08/07 03:21:26;;;;;;;7.65;4.60;;;;;;;20.86;100.00;94662.00;5015580;28;20033;-90
2022/08/07 03:23:58;;;;;;;7.95;4.63;;;;;;;20.89;100.00;94656.03;4999063;28;20044;-89
2022/08/07 03:26:30;;;;;;;4.68;4.18;;;;;;;20.93;100.00;94653.50;5016378;28;20041;-90
2022/08/07 03:29:00;;;;;;;9.00;5.30;;;;;;;19.81;100.00;94658.00;5015454;28;20040;-90
2022/08/07 03:31:37;;;;;;;7.15;4.82;;;;;;;19.72;100.00;94663.34;5015857;28;20034;-90
2022/08/07 03:34:09;;;;;;;10.38;4.88;;;;;;;20.33;100.00;94657.00;5015597;28;20029;-90
2022/08/07 03:36:36;;;;;;;11.80;5.68;;;;;;;20.40;100.00;94662.59;5015375;28;20036;-90
2022/08/07 03:39:07;;;;;;;10.23;5.07;;;;;;;20.38;100.00;94662.16;4998990;28;20034;-90
2022/08/07 03:45:04;;;;;;;8.30;4.55;;;;;;;20.72;100.00;94667.53;5016392;28;20399;-90
2022/08/07 03:47:30;;;;;;;6.93;4.47;;;;;;;20.83;100.00;94665.31;5015321;28;20026;-89
2022/08/07 03:50:00;;;;;;;10.95;4.10;;;;;;;20.87;100.00;94666.22;4999295;28;20029;-90
2022/08/07 03:52:29;;;;;;;17.83;4.28;;;;;;;20.76;100.00;94665.81;5015166;28;20606;-90
2022/08/07 03:54:56;;;;;;;7.38;3.58;;;;;;;20.90;100.00;94662.91;4998963;28;20030;-90
2022/08/07 03:57:24;;;;;;;9.38;3.67;;;;;;;20.85;100.00;94668.44;5017694;28;20022;-90
2022/08/07 03:59:50;;;;;;;11.18;5.18;;;;;;;19.90;100.00;94664.84;5002502;28;20025;-90
2022/08/07 04:02:15;;;;;;;7.53;5.20;;;;;;;19.57;100.00;94665.44;5018810;28;20056;-90
2022/08/07 04:04:53;;;;;;;;;;;;;;;;;;;;;
2022/08/07 04:07:19;;;;;;;11.80;4.97;;;;;;;19.61;100.00;94655.72;5018671;28;20029;-90
2022/08/07 04:09:46;;;;;;;9.50;5.32;;;;;;;19.97;100.00;94663.63;5018468;28;20120;-90
2022/08/07 04:12:17;;;;;;;6.10;4.38;;;;;;;20.32;100.00;94658.09;5002567;28;20112;-90
2022/08/07 04:14:42;;;;;;;8.50;4.68;;;;;;;19.89;100.00;94670.50;5018354;28;20538;-90
2022/08/07 04:17:08;;;;;;;14.20;5.43;;;;;;;19.27;100.00;94675.97;5018384;28;20108;-90
2022/08/07 04:19:34;;;;;;;10.77;6.10;;;;;;;19.21;100.00;94680.66;5018313;28;20026;-90
2022/08/07 04:22:24;;;;;;;7.95;6.00;;;;;;;19.01;100.00;94674.13;5002369;28;20076;-91
2022/08/07 04:24:50;;;;;;;16.48;5.90;;;;;;;18.92;100.00;94670.66;5021595;28;20025;-95
2022/08/07 04:27:16;;;;;;;10.02;5.63;;;;;;;18.91;100.00;94674.41;5002734;28;20057;-95
2022/08/07 04:29:44;;;;;;;9.70;5.35;;;;;;;19.41;100.00;94673.13;5018905;28;20061;-95
2022/08/07 04:35:32;;;;;;;8.38;5.22;;;;;;;19.06;100.00;94692.53;5019730;28;20076;-95
2022/08/07 04:37:57;;;;;;;7.18;5.53;;;;;;;19.33;100.00;94687.22;5002552;28;20423;-96
2022/08/07 04:40:33;;;;;;;8.18;5.57;;;;;;;19.38;100.00;94692.34;5002271;28;20115;-94
2022/08/07 04:42:59;;;;;;;11.57;5.90;;;;;;;19.22;100.00;94694.72;5008969;28;20029;-95
2022/08/07 04:45:40;;;;;;;5.25;4.28;;;;;;;19.71;100.00;94694.47;5021814;28;20075;-95
2022/08/07 04:48:34;;;;;;;11.65;4.32;;;;;;;20.18;100.00;94684.94;5022190;28;20060;-94
2022/08/07 04:51:08;;;;;;;10.18;4.10;;;;;;;20.60;100.00;94702.88;5038876;28;20042;-95
2022/08/07 04:53:48;;;;;;;10.32;4.53;;;;;;;20.79;100.00;94707.75;5021664;28;20036;-95
2022/08/07 04:56:33;;;;;;;;;;;;;;;;;;;;;
2022/08/07 04:59:16;;;;;;;5.65;4.55;;;;;;;21.15;100.00;94697.66;5038056;28;20025;-94
2022/08/07 05:01:58;;;;;;;;;;;;;;;;;;;;;
2022/08/07 05:04:55;;;;;;;8.85;4.95;;;;;;;21.21;100.00;94706.97;5037891;28;20032;-94
2022/08/07 05:07:43;;;;;;;9.57;4.25;;;;;;;21.24;100.00;94710.88;5022397;28;20037;-94
2022/08/07 05:10:50;;;;;;;8.45;4.28;;;;;;;21.33;100.00;94720.34;5021700;28;20029;-95
2022/08/07 05:13:37;;;;;;;8.52;4.35;;;;;;;20.77;100.00;94720.63;4981156;28;20037;-93
2022/08/07 05:16:13;;;;;;;13.98;5.10;;;;;;;20.74;100.00;94723.94;4981335;28;20041;-94
2022/08/07 05:18:46;;;;;;;9.60;5.30;;;;;;;20.74;100.00;94726.59;5002594;28;20037;-93
2022/08/07 05:21:12;;;;;;;12.30;6.45;;;;;;;20.59;100.00;94735.91;5021784;28;20072;-94
2022/08/07 05:23:44;;;;;;;9.32;5.60;;;;;;;20.54;100.00;94738.78;5021051;28;20080;-94
2022/08/07 05:26:19;;;;;;;6.77;4.53;;;;;;;20.76;100.00;94735.03;5021279;28;20033;-94
2022/08/07 05:28:50;;;;;;;6.93;4.55;;;;;;;20.83;100.00;94745.19;5037690;28;20052;-95
2022/08/07 05:31:32;;;;;;;;;;;;;;;;;;;;;
2022/08/07 05:33:58;;;;;;;5.75;3.78;;;;;;;21.03;100.00;94744.41;5037354;28;20025;-94
2022/08/07 05:36:34;;;;;;;;;;;;;;;;;;;;;
2022/08/07 05:39:10;;;;;;;;;;;;;;;;;;;;;
2022/08/07 05:41:57;;;;;;;;;;;;;;;;;;;;;
2022/08/07 05:44:28;;;;;;;5.00;3.35;;;;;;;21.27;100.00;94737.66;5037389;28;20025;-94
2022/08/07 05:46:57;;;;;;;5.07;3.20;;;;;;;21.46;100.00;94731.06;5021648;28;20092;-95
2022/08/07 05:49:25;;;;;;;9.10;3.35;;;;;;;21.57;100.00;94750.88;5021201;28;20057;-95
2022/08/07 05:51:53;;;;;;;6.63;3.22;;;;;;;21.53;100.00;94743.88;5021098;28;20438;-94
2022/08/07 05:54:26;;;;;;;5.45;4.03;;;;;;;21.41;100.00;94741.94;5036927;28;20037;-94
2022/08/07 05:56:55;;;;;;;4.78;3.13;;;;;;;21.72;100.00;94746.06;5036970;28;20025;-94
2022/08/07 05:59:21;;;;;;;6.10;3.78;;;;;;;21.58;100.00;94744.44;5020961;28;20025;-94
2022/08/07 06:01:58;;;;;;;;;;;;;;;;;;;;;
2022/08/07 06:04:30;;;;;;;6.65;4.28;;;;;;;21.72;100.00;94741.50;5036854;28;20032;-95
2022/08/07 06:07:02;;;;;;;6.20;4.13;;;;;;;22.17;100.00;94742.59;5021096;28;20103;-94
2022/08/07 06:09:38;;;;;;;;;;;;;;;;;;;;;
2022/08/07 06:12:14;;;;;;;;;;;;;;;;;;;;;
2022/08/07 06:14:44;;;;;;;8.27;4.95;;;;;;;23.18;100.00;94737.97;5036593;28;20037;-94
2022/08/07 06:17:21;;;;;;;;;;;;;;;;;;;;;
2022/08/07 06:19:50;;;;;;;7.90;3.45;;;;;;;23.74;100.00;94729.16;5021750;28;20026;-95
2022/08/07 06:22:18;;;;;;;11.07;4.22;;;;;;;23.36;100.00;94733.91;5000692;28;20044;-94
2022/08/07 06:24:54;;;;;;;5.63;4.38;;;;;;;22.14;100.00;94724.59;5000434;28;20038;-94
2022/08/07 06:27:38;;;;;;;;;;;;;;;;;;;;;
2022/08/07 06:30:03;;;;;;;;;;;;;;;22.74;100.00;94723.38;5017227;28;20040;-94
2022/08/07 06:32:47;;;;;;;;;;;;;;;;;;;;;
2022/08/07 06:35:22;;;;;;;;;;;;;;;;;;;;;
2022/08/07 06:37:58;;;;;;;;;;;;;;;;;;;;;
2022/08/07 06:40:24;;;;;;;10.85;4.47;;;;;;;23.27;100.00;94699.31;5016458;28;20354;-90
2022/08/07 06:42:58;;;;;;;7.60;4.45;;;;;;;23.88;100.00;94696.63;4999538;28;20124;-90
2022/08/07 06:45:31;;;;;;;8.65;4.15;;;;;;;25.12;100.00;94700.19;5000500;28;20128;-89
2022/08/07 06:48:07;;;;;;;10.45;3.92;;;;;;;25.44;100.00;94705.41;5001171;28;20030;-89
2022/08/07 06:50:52;;;;;;;5.55;3.88;;;;;;;25.17;100.00;94713.31;5001081;28;20026;-90
2022/08/07 06:53:28;;;;;;;6.65;3.63;;;;;;;24.97;100.00;94710.63;4999288;28;20033;-90
2022/08/07 06:56:06;;;;;;;;;;;;;;;;;;;;;
2022/08/07 06:59:05;;;;;;;;;;;;;;;;;;;;;
2022/08/07 07:01:50;;;;;;;;;;;;;;;;;;;;;
2022/08/07 07:04:31;;;;;;;;;;;;;;;;;;;;;
2022/08/07 07:06:57;;;;;;;13.00;6.00;;;;;;;22.41;100.00;94701.00;5033854;28;20025;-88
2022/08/07 07:09:32;;;;;;;11.60;6.35;;;;;;;21.93;100.00;94687.31;5035867;28;20029;-88
2022/08/07 07:12:22;;;;;;;15.93;6.53;;;;;;;21.85;100.00;94675.66;5019689;28;20036;-89
2022/08/07 07:15:14;;;;;;;8.40;5.82;;;;;;;22.68;100.00;94690.78;5019022;28;20037;-89
2022/08/07 07:18:07;;;;;;;10.05;5.88;;;;;;;23.72;100.00;94689.38;5028610;28;20045;-88
2022/08/07 07:20:56;;;;;;;9.73;5.30;;;;;;;24.24;100.00;94673.44;5028897;28;20434;-87
2022/08/07 07:23:28;;;;;;;7.35;5.60;;;;;;;24.91;100.00;94679.88;5035988;28;20056;-89
2022/08/07 07:26:06;;;;;;;12.35;5.63;;;;;;;24.39;100.00;94687.16;5020005;28;20029;-87
2022/08/07 07:29:05;;;;;;;6.65;5.55;;;;;;;24.11;100.00;94686.16;5019902;28;20033;-89
2022/08/07 07:31:32;;;;;;;10.50;5.22;;;;;;;24.07;100.00;94697.91;5021507;28;20063;-88
2022/08/07 07:34:02;;;;;;;13.93;5.25;;;;;;;23.59;100.00;94698.59;5038836;28;20037;-89
2022/08/07 07:36:29;;;;;;;7.82;4.82;;;;;;;24.63;100.00;94690.75;5039513;28;20315;-88
2022/08/07 07:39:01;;;;;;;7.78;4.95;;;;;;;25.00;100.00;94693.06;5022765;28;20124;-88
2022/08/07 07:41:28;;;;;;;10.75;5.15;;;;;;;24.94;100.00;94686.44;5022513;28;20026;-88
2022/08/07 07:44:01;;;;;;;7.22;4.63;;;;;;;25.76;100.00;94693.72;5038892;28;20057;-89
2022/08/07 07:46:33;;;;;;;6.90;4.43;;;;;;;25.05;100.00;94683.97;5019327;28;20026;-89
2022/08/07 07:49:02;;;;;;;7.05;5.03;;;;;;;24.56;100.00;94688.69;5002975;28;20088;-88
2022/08/07 07:51:38;;;;;;;7.28;5.28;;;;;;;23.92;100.00;94689.50;5020216;28;20406;-89
2022/08/07 07:54:08;;;;;;;7.20;4.97;;;;;;;23.65;100.00;94675.06;5000797;28;20079;-88
2022/08/07 07:56:34;;;;;;;6.93;4.60;;;;;;;24.71;100.00;94684.41;5003273;28;20037;-89
2022/08/07 07:59:02;;;;;;;11.55;5.18;;;;;;;24.73;100.00;94684.81;5003421;28;20033;-90
2022/08/07 08:01:31;;;;;;;7.93;4.28;;;;;;;25.68;100.00;94679.41;5020271;28;20076;-92
2022/08/07 08:04:11;;;;;;;5.45;3.53;;;;;;;25.69;100.00;94675.59;5002574;28;20029;-89
2022/08/07 08:06:48;;;;;;;;;;;;;;;;;;;;;
2022/08/07 08:09:18;;;;;;;7.40;3.80;;;;;;;25.11;100.00;94682.56;5033628;28;20026;-90
2022/08/07 08:11:44;;;;;;;9.98;4.70;;;;;;;24.49;100.00;94683.16;5002538;28;20026;-91
2022/08/07 08:14:14;;;;;;;21.27;5.32;;;;;;;23.96;100.00;94674.28;5018166;28;20424;-90
2022/08/07 08:16:46;;;;;;;10.88;4.97;;;;;;;23.68;100.00;94671.72;5003223;28;20129;-89
2022/08/07 08:19:16;;;;;;;13.95;6.15;;;;;;;23.34;100.00;94673.88;5018947;28;20037;-89
2022/08/07 08:28:48;;;;;;;;;;;;;;;;;;;;;
2022/08/07 08:31:34;;;;;;;;;;;;;;;;;;;;;
2022/08/07 08:34:13;;;;;;;;;;;;;;;;;;;;;
2022/08/07 08:36:42;;;;;;;7.82;6.82;;;;;;;24.31;100.00;94698.81;5018184;28;20029;-89
2022/08/07 08:39:07;;;;;;;10.98;8.20;;;;;;;24.48;100.00;94703.03;5018192;28;20060;-89
2022/08/07 08:41:52;;;;;;;16.23;9.55;;;;;;;23.42;100.00;94694.34;5018229;28;20061;-91
2022/08/07 08:44:39;;;;;;;14.63;9.23;;;;;;;22.97;100.00;94693.47;5016940;28;20128;-93
2022/08/07 08:47:21;;;;;;;;;;;;;;;;;;;;;
2022/08/07 08:50:27;;;;;;;;;;;;;;;;;;;;;
2022/08/07 08:53:50;;;;;;;;;;;;;;;;;;;;;
2022/08/07 08:56:46;;;;;;;12.60;8.63;;;;;;;24.67;100.00;94699.63;4985764;28;20044;-92
2022/08/07 08:59:35;;;;;;;15.55;8.70;;;;;;;23.65;100.00;94696.44;5017897;28;20126;-92
2022/08/07 09:02:43;;;;;;;11.65;9.48;;;;;;;23.37;100.00;94699.94;5003088;28;20030;-93
2022/08/07 09:05:30;;;;;;;9.68;8.10;;;;;;;23.47;100.00;94702.13;5019119;28;20083;-94
2022/08/07 09:08:27;;;;;;;;;;;;;;;;;;;;;
2022/08/07 09:14:38;;;;;;;9.52;7.60;;;;;;;24.44;100.00;94702.94;5018741;28;20113;-94
2022/08/07 09:17:52;;;;;;;;;;;;;;;;;;;;;
2022/08/07 09:20:31;;;;;;;11.73;8.60;;;;;;;24.89;100.00;94710.81;5018852;28;20014;-94
2022/08/07 09:23:27;;;;;;;12.93;7.93;;;;;;;24.92;100.00;94710.91;5017970;28;20077;-93
2022/08/07 09:26:31;;;;;;;;;;;;;;;;;;;;;
2022/08/07 09:29:38;;;;;;;10.50;6.90;;;;;;;24.21;100.00;94697.44;5017642;28;20022;-94
2022/08/07 09:32:25;;;;;;;;;;;;;;;;;;;;;
2022/08/07 09:35:19;;;;;;;;;;;;;;;;;;;;;
2022/08/07 09:38:41;;;;;;;7.32;6.03;;;;;;;25.50;100.00;94701.31;5018519;28;20403;-94
2022/08/07 09:41:42;;;;;;;7.28;5.65;;;;;;;25.41;100.00;94696.16;5018095;28;20132;-96
2022/08/07 09:44:47;;;;;;;10.50;5.40;;;;;;;25.01;100.00;94689.25;5009760;28;20403;-95
2022/08/07 09:47:51;;;;;;;12.10;5.43;;;;;;;25.40;100.00;94691.91;5017155;28;20451;-93
2022/08/07 09:50:19;;;;;;;6.03;5.37;;;;;;;25.46;100.00;94697.78;5001001;28;20079;-94
2022/08/07 09:53:16;;;;;;;;;;;;;;;;;;;;;
2022/08/07 09:56:06;;;;;;;6.40;4.97;;;;;;;26.34;100.00;94706.19;5016690;28;20036;-91
2022/08/07 09:58:58;;;;;;;7.07;5.00;;;;;;;25.50;100.00;94703.25;5017326;28;20112;-92
2022/08/07 10:01:49;;;;;;;6.68;5.07;;;;;;;26.17;100.00;94695.94;5035599;28;20029;-93
2022/08/07 10:04:44;;;;;;;8.57;4.15;;;;;;;27.16;100.00;94694.25;5019423;28;20022;-89
2022/08/07 10:07:28;;;;;;;4.30;3.53;;;;;;;27.10;100.00;94699.19;5017511;28;20034;-91
2022/08/07 10:10:12;;;;;;;;;;;;;;;26.61;100.00;94692.75;5026637;28;20104;-90
2022/08/07 10:12:59;;;;;;;8.02;3.17;;;;;;;27.19;100.00;94692.75;5037127;28;19908;-88
2022/08/07 10:15:33;;;;;;;5.25;3.58;;;;;;;26.21;100.00;94694.09;5037074;28;20393;-90
2022/08/07 10:18:07;;;;;;;;;;;;;;;27.44;100.00;94694.94;5036621;28;20489;-90
2022/08/07 10:20:57;;;;;;;8.73;3.92;;;;;;;28.16;100.00;94692.16;5036374;28;19952;-88
2022/08/07 10:23:56;;;;;;;3.80;2.90;;;;;;;28.29;100.00;94687.28;5036112;28;20343;-90
2022/08/07 10:26:31;;;;;;;3.22;2.30;;;;;;;28.62;100.00;94682.84;5036018;28;20029;-89
2022/08/07 10:29:40;;;;;;;3.88;2.70;;;;;;;27.95;100.00;94671.97;5036946;28;20033;-89
2022/08/07 10:32:38;;;;;;;2.42;2.10;;;;;;;28.42;100.00;94693.16;5017422;28;20458;-88
2022/08/07 10:35:25;;;;;;;3.05;2.58;;;;;;;28.21;93.07;94681.84;5036657;28;20144;-88
2022/08/07 10:38:09;;;;;;;2.83;2.17;;;;;;;28.25;98.28;94683.78;5017132;28;20022;-88
2022/08/07 10:41:33;;;;;;;2.80;2.50;;;;;;;26.96;100.00;94680.94;5017224;28;20088;-90
2022/08/07 10:44:22;;;;;;;5.40;2.58;;;;;;;27.41;100.00;94679.53;4975755;28;20031;-88
2022/08/07 10:47:22;;;;;;;5.10;2.65;;;;;;;26.78;100.00;94669.19;5013281;28;20049;-89
2022/08/07 10:50:10;;;;;;;5.43;3.00;;;;;;;26.77;100.00;94662.25;5016012;28;20440;-91
2022/08/07 10:52:50;;;;;;;5.03;2.63;;;;;;;26.99;100.00;94659.88;5032203;28;20030;-89
2022/08/07 10:55:40;;;;;;;3.40;3.10;;;;;;;27.14;100.00;94653.50;5017150;28;20505;-90
2022/08/07 10:58:24;;;;;;;5.50;2.72;;;;;;;26.84;100.00;94651.59;5016853;28;20113;-89
2022/08/07 11:01:00;;;;;;;2.90;2.70;;;;;;;25.78;100.00;94643.94;5016825;28;20116;-89
2022/08/07 11:03:38;;;;;;;5.78;2.85;;;;;;;26.65;100.00;94631.78;5016981;28;20071;-88
2022/08/07 11:06:12;;;;;;;4.25;2.80;;;;;;;25.98;100.00;94619.72;4999945;28;20378;-90
2022/08/07 11:09:03;;;;;;;4.30;2.80;;;;;;;25.57;100.00;94619.44;5020668;28;20076;-88
2022/08/07 11:11:38;;;;;;;3.88;2.90;;;;;;;25.47;100.00;94632.28;5003781;28;20034;-89
2022/08/07 11:14:19;;;;;;;4.05;2.97;;;;;;;25.31;100.00;94642.31;5019747;28;20030;-89
2022/08/07 11:16:49;;;;;;;6.28;3.10;;;;;;;24.69;100.00;94654.50;5021294;28;20339;-89
2022/08/07 11:19:38;;;;;;;4.97;3.35;;;;;;;24.11;100.00;94646.00;5034865;28;20378;-90
2022/08/07 11:22:13;;;;;;;9.57;3.15;;;;;;;24.48;100.00;94630.72;5019713;28;20453;-89
2022/08/07 11:24:47;;;;;;;7.00;3.08;;;;;;;24.07;100.00;94618.38;5020528;28;20049;-91
2022/08/07 11:27:18;;;;;;;6.28;3.30;;;;;;;23.67;100.00;94613.97;5020947;28;20059;-91
2022/08/07 11:29:52;;;;;;;7.60;3.83;;;;;;;23.25;100.00;94624.00;5003199;28;20026;-92
2022/08/07 11:32:40;;;;;;;6.35;3.67;;;;;;;23.11;100.00;94612.94;5004297;28;20059;-90
2022/08/07 11:35:23;;;;;;;4.53;3.15;;;;;;;23.58;100.00;94617.59;5038868;28;20446;-91
2022/08/07 11:38:16;;;;;;;5.57;3.60;;;;;;;23.01;100.00;94623.00;5023846;28;20036;-91
2022/08/07 11:41:00;;;;;;;3.78;3.10;;;;;;;23.48;100.00;94631.47;5023530;28;20696;-91
2022/08/07 11:43:40;;;;;;;4.15;3.50;;;;;;;23.80;100.00;94633.41;5038562;28;20025;-89
2022/08/07 11:46:43;;;;;;;4.43;3.53;;;;;;;23.39;100.00;94634.31;5039518;28;20026;-92
2022/08/07 11:49:23;;;;;;;4.90;3.50;;;;;;;23.61;100.00;94626.06;5039226;28;20086;-89
2022/08/07 11:52:05;;;;;;;3.58;3.20;;;;;;;23.38;100.00;94623.94;5022644;28;20026;-91
2022/08/07 11:54:49;;;;;;;4.45;3.13;;;;;;;23.92;100.00;94624.50;5038361;28;20044;-90
2022/08/07 11:57:40;;;;;;;;;;;;;;;;;;;;;
2022/08/07 12:00:18;;;;;;;;;;;;;;;;;;;;;
2022/08/07 12:03:12;;;;;;;4.07;3.35;;;;;;;22.64;100.00;94625.03;5038641;28;20026;-92
2022/08/07 12:06:17;;;;;;;;;;;;;;;;;;;;;
2022/08/07 12:09:11;;;;;;;;;;;;;;;;;;;;;
2022/08/07 12:11:54;;;;;;;5.95;4.50;;;;;;;22.71;100.00;94627.88;5039538;28;20031;-90
2022/08/07 12:14:36;;;;;;;;;;;;;;;;;;;;;
2022/08/07 12:17:26;;;;;;;8.93;4.95;;;;;;;22.99;100.00;94597.72;5037516;28;20033;-90
2022/08/07 12:20:03;;;;;;;9.30;5.70;;;;;;;23.21;100.00;94591.06;5023190;28;20057;-90
2022/08/07 12:23:04;;;;;;;9.98;7.35;;;;;;;22.87;100.00;94583.31;5021884;28;20032;-89
2022/08/07 12:25:58;;;;;;;15.90;10.02;;;;;;;22.83;100.00;94573.66;5039288;28;20458;-89
2022/08/07 12:28:43;;;;;;;;;;;;;;;23.68;100.00;94581.53;5025540;28;20365;-90
2022/08/07 12:31:40;;;;;;;16.00;12.15;;;;;;;23.82;100.00;94581.09;5039346;28;19909;-94
2022/08/07 12:34:06;;;;;;;15.40;12.55;;;;;;;24.53;100.00;94590.28;5038821;28;20029;-91
2022/08/07 12:36:32;;;;;;;17.40;10.60;;;;;;;25.02;100.00;94602.34;5021505;28;20108;-91
2022/08/07 12:38:58;;;;;;;12.80;9.13;;;;;;;25.14;100.00;94601.44;5021386;28;20029;-90
2022/08/07 12:41:28;;;;;;;16.50;11.18;;;;;;;25.06;100.00;94597.84;5038156;28;20030;-91
2022/08/07 12:43:55;;;;;;;16.27;13.75;;;;;;;24.10;100.00;94598.19;5022088;28;20021;-90
2022/08/07 12:46:26;;;;;;;14.82;12.13;;;;;;;24.32;100.00;94590.59;5035375;28;20393;-91
2022/08/07 12:49:40;;;;;;;22.23;16.42;;;;;;;23.45;100.00;94581.38;5017962;28;20026;-91
2022/08/07 12:52:13;;;;;;;17.23;14.27;;;;;;;23.39;100.00;94564.03;5015607;28;20044;-90
2022/08/07 12:54:50;;;;;;;20.85;16.25;;;;;;;23.10;100.00;94568.66;5017763;28;20022;-91
2022/08/07 12:57:17;;;;;;;23.77;17.65;;;;;;;22.92;100.00;94555.56;5017773;28;20034;-91
2022/08/07 12:59:43;;;;;;;24.60;20.42;;;;;;;22.62;100.00;94557.84;5017747;28;20030;-92
2022/08/07 13:06:24;;;;;;;25.85;20.33;;;;;;;23.17;100.00;94598.22;5018765;28;20033;-90
2022/08/07 13:09:27;;;;;;;19.73;16.80;;;;;;;23.31;100.00;94600.50;5031949;28;20033;-90
2022/08/07 13:12:02;;;;;;;20.58;17.45;;;;;;;23.01;100.00;94606.19;5038304;28;20378;-90
2022/08/07 13:14:42;;;;;;;24.92;21.08;;;;;;;22.31;100.00;94603.50;5037430;28;20418;-90
2022/08/07 13:17:16;;;;;;;24.90;19.42;;;;;;;22.57;100.00;94594.31;5037148;28;20346;-91